Latest Observation

114 Stations

10 Minute Data
as of 9/5/26 9:46 PM PDT
Station Date Time Temp (°F) RH (%) Dew Pt (°F) Wind Spd (mph) Wind Dir (°) Wind Gust (mph) Wind Gst Dir (°) Latest Rain (In) Soil Moist (%) Soil Temp (°F) Daily Rain (In) Daily Min Temp (°F) Daily Max Temp (°F) Daily Max Wind (mph)
Hobart Mills 9/5/26 2140 48.4   0.3 75   2 40.9   0.5 0.0   1.8 N | 0 0.0   6.2 S | 169 0.00 7.5   0.0 62.6   0.8 0.00 39.0   7.8 62.7   5.3 20.4   3.6
Prosser Dam 9/5/26 2140 50.5   0.3 71   2 41.5   0.9 4.0   0.8 SW | 227 6.2   0.6 SW | 216 0.00 5.2   0.0 59.6   0.9 0.00 35.3   12.8 63.2   3.2 20.6   0.4
West Incline Village 9/5/26 2140 47.8   3.0 67   12 37.2   1.4 2.0   0.7 NNE | 19 4.3   0.5 ENE | 72 0.00 11.6   0.1 55.3   0.6 0.00 43.4   0.4 58.2   7.4 18.6   3.0
Incline Village (Fairview Blvd) 9/5/26 2140 49.8   2.5 65   8 38.6   0.4 0.9   0.8 WSW | 252 8.6   5.5 S | 186 0.00 7.6   0.1 67.3   0.8 0.00 46.3   0.7 60.6   2.6 14.8   3.7
Incline Village (Diamond Peak) 9/5/26 2140 46.5   1.9 72   6 38.0   0.1 1.3   2.5 NW | 313 3.2   5.5 NNW | 334 0.00 2.4   0.0 56.4   0.2 0.00 44.2   0.2 58.2   7.3 11.9   1.0
Incline Village (Mill Creek) 9/5/26 2140 51.6   3.0 68   3 41.3   1.9 0.7   0.9 WSW | 248 6.7   2.4 NW | 305 0.00 2.9   0.1 59.8   0.9 0.00 45.2   3.2 62.1   6.6 13.9   5.0
Incline Village (Lakeshore Blvd) 9/5/26 2140 52.6   3.4 68   5 42.2   1.4 0.2   0.1 N | 360 1.6   1.1 NW | 324 0.00 19.2   2.9 60.5   0.1 0.00 44.0   5.0 60.0   2.9 11.6   5.5
Glenbrook 9/5/26 2140 51.7   3.4 71   1 42.7   2.8 4.0   2.0 ENE | 75 7.1   5.0 ENE | 57 0.00 43.5   0.0 58.1   0.2 0.00 40.1   7.6 62.4   4.6 19.8   6.6
Zephyr Cove 9/5/26 2140 51.7   4.4 61   11 38.7   0.0 0.4   0.2 SE | 132 2.5   0.2 E | 93 0.00 2.9   0.1 66.5   2.6 0.00 44.6   2.4 66.0   5.6 8.7   3.8
Kingsbury Grade 9/5/26 2140 47.8   2.3 72   6 39.2   0.3 0.7   0.5 NE | 46 2.7   1.2 ENE | 77 0.00 2.8   0.3 65.0   0.9 0.00 39.2   6.1 64.6   6.5 16.8   1.6
South Daggett Pass (Ridge) 9/5/26 2140 45.2   3.8 79   10 39.0   0.6 0.9   0.1 WNW | 288 6.3   2.0 WSW | 246 0.00 2.2   0.0 60.1   0.9 0.00 41.9   0.6 59.3   4.4 23.0   4.6
Palomino Valley 9/5/26 2140 57.7   2.0 50   7 39.0   1.5 5.1   4.1 SE | 129 7.8   4.3 E | 89 0.00 6.6   0.0 75.1   0.6 0.00 38.8   15.2 74.3   3.5 24.2   10.4
East Cold Springs 9/5/26 2140 56.4   1.9 53   3 39.6   0.6 15.5   6.1 WSW | 258 21.1   3.5 WSW | 249 0.00 1.5   0.1 69.3   1.3 0.00 45.4   5.2 68.4   4.4 26.1   4.7
Peavine 9/5/26 2140 55.1   2.4 52   5 37.6   0.1 24.8   8.3 WSW | 257 34.5   6.6 WSW | 245 0.00 4.3   0.1 69.3   1.9 0.00 44.9   5.2 65.6   4.8 36.0   12.4
West Verdi Peak 9/5/26 2240 49.2   2.2 71   7 40.1   0.2 1.5   0.6 SE | 137 4.7   4.6 E | 99 0.00 6.4   0.0 65.1   1.0 0.00 43.0   3.5 63.3   5.4 19.9   0.0
West Verdi 9/5/26 2140 55.7   1.1 60   6 42.2   1.6 2.4   8.4 ESE | 103 5.5   20.4 W | 279 0.00 6.1   0.0 74.7   1.6 0.00 44.4   7.8 68.2   4.6 24.2   3.6
South Verdi 9/5/26 2140 54.3   0.4 62   6 41.4   2.2 5.0   22.2 SSE | 163 6.7   28.2 SE | 145 0.00 10.3   0.1 70.6   1.6 0.00 46.8   4.7 66.1   4.0 37.4   5.5
Northwest Reno 9/5/26 2140 58.4   1.9 52   2 41.1   0.9 26.6   2.8 W | 273 36.0   3.0 W | 273 0.00 24.4   0.2 72.8   0.3 0.00 48.4   5.9 69.3   5.7 42.4   8.8
North Lawton 8/28/26 1620 63.8   17.1 74   52 55.4   16.5 1.5   11.6 ESE | 121 5.1   19.0 SE | 124 0.00 - 78.2   0.0 0.05 59.2   7.5 71.9   13.3 20.4   4.6
West Reno (Mogul) 9/5/26 2140 56.5   0.4 59   6 42.2   2.3 13.7   5.9 WSW | 252 17.3   1.2 WSW | 258 0.00 19.4   0.1 75.8   0.8 0.00 47.3   5.9 69.5   4.5 23.7   7.1
Caughlin (Hunter Lake Trail) 9/5/26 2140 58.7   5.3 49   10 39.5   0.1 6.7   6.4 WSW | 253 10.7   4.3 W | 269 0.00 16.0   0.1 70.6   0.0 0.00 46.7   5.8 70.6   6.3 33.2   3.5
ArrowCreek 9/5/26 2140 57.4   4.4 54   3 40.9   2.7 6.0   1.5 S | 186 10.3   2.0 SSW | 205 0.00 - 32.0   0.0 0.00 47.4   5.1 71.2   5.9 35.5   4.8
Tracy 9/5/26 2140 64.2   1.7 43   1 41.1   0.8 8.9   2.2 W | 278 16.5   4.0 NW | 316 0.00 15.5   0.1 76.1   0.9 0.00 48.7   13.5 77.1   5.3 25.1   10.8
Virginia Highlands 9/5/26 2140 54.9   1.7 57   6 40.1   0.8 1.6   5.3 SSE | 164 5.0   9.8 ENE | 60 0.00 7.8   0.0 71.4   0.6 0.00 47.7   5.4 67.4   5.2 22.7   12.2
Virginia City 9/5/26 2140 54.9   1.5 56   2 39.5   2.4 12.6   5.1 NW | 314 20.6   3.5 NNW | 331 0.00 4.8   0.0 72.7   0.3 0.00 46.0   6.9 68.0   6.1 26.6   8.2
Six Mile Canyon 9/5/26 2140 65.5   4.3 37   8 38.5   0.9 11.0   2.8 NW | 320 15.5   2.7 NW | 317 0.00 12.3   0.0 77.3   0.6 0.00 49.6   11.5 76.6   4.5 26.0   9.7
Mt Rose Highway 9/5/26 2140 51.2   3.5 57   8 36.6   0.2 8.2   4.5 SSW | 211 14.3   6.0 SW | 216 0.00 7.4   0.0 58.7   0.8 0.00 45.1   0.2 62.1   6.0 28.6   4.8
Pleasant Valley 9/5/26 2140 60.6   0.5 47   1 40.0   0.9 2.3   11.8 ESE | 106 7.1   13.4 SE | 142 0.00 2.3   0.0 73.5   0.3 0.00 41.9   14.7 71.7   5.3 32.4   2.2
New Washoe City 9/5/26 2140 58.2   1.0 53   2 41.0   0.0 4.1   6.2 SW | 230 11.2   7.6 SW | 215 0.00 3.4   0.0 69.6   1.1 0.00 45.2   11.8 69.9   4.4 28.8   4.2
Franktown Creek 9/5/26 2140 59.4   0.8 52   0 41.6   0.8 4.4   0.4 WNW | 284 15.0   0.4 NNW | 348 0.00 7.0   0.0 68.5   1.3 0.00 45.0   10.1 69.2   4.4 23.1   2.4
Musgrove Creek 9/5/26 2140 56.9   1.9 58   2 42.3   0.8 3.9   1.2 SSW | 209 12.0   1.4 S | 183 0.00 10.3   0.0 59.5   0.2 0.00 49.2   2.7 67.1   3.8 18.9   0.4
East Carson 11/23/24 0110 28.6   28.4 - - 4.7   11.0 SW | 220 14.7   10.1 SW | 219 0.02 - 50.9   0.1 0.02 -25.9   79.1 42.9   14.6 16.0   10.7
Kings Canyon 9/5/26 2140 62.7   4.6 36   13 35.3   3.8 5.4   0.9 SW | 229 11.4   1.5 W | 265 0.00 4.1   0.0 68.5   0.9 0.00 43.6   13.5 70.0   6.1 26.3   0.4
Carson City (Voltaire Canyon) 9/5/26 2140 60.9   3.4 48   7 41.4   0.5 11.4   1.0 WSW | 238 19.4   0.4 WSW | 257 0.00 2.8   0.0 75.5   0.9 0.00 51.0   6.4 72.6   6.7 29.8   10.6
Jacks Valley 9/5/26 2140 58.9   1.4 53   3 41.9   2.6 6.9   1.7 WNW | 303 12.4   4.7 NW | 309 0.00 4.7   0.1 79.1   3.5 0.00 47.3   10.0 71.4   4.3 29.3   4.3
Genoa 9/5/26 2140 63.0   3.9 42   9 39.3   1.6 4.1   3.4 W | 268 11.7   6.1 W | 263 0.00 2.3   0.0 69.0   1.9 0.00 45.5   13.2 74.0   5.5 13.7   0.2
South Genoa (Walleys Hot Springs) 9/5/26 2140 62.4   0.5 42   2 39.1   0.6 1.4   10.6 SSE | 153 5.0   18.1 SE | 141 0.00 4.9   0.5 72.3   0.9 0.00 42.8   14.6 75.5   7.6 30.3   5.3
SW Gardnerville (HWY 88) 9/5/26 2140 64.8   6.2 37   12 38.0   1.7 10.3   8.4 SSE | 154 14.7   8.9 SE | 137 0.00 2.7   0.0 66.8   1.0 0.00 44.1   13.7 73.2   6.2 31.4   0.5
Sheridan 9/5/26 2140 62.9   9.3 40   13 38.2   1.1 4.8   0.8 ESE | 121 12.5   4.8 SE | 133 0.00 1.1   0.0 71.8   0.7 0.00 46.7   6.0 73.9   6.1 32.2   7.6
Ruhenstroth 9/5/26 2140 61.3   3.5 44   6 39.0   0.1 2.6   4.1 WSW | 246 5.8   3.7 WSW | 252 0.00 6.9   0.1 75.4   2.1 0.00 50.3   7.4 73.5   5.3 33.8   2.1
Double Spring 9/5/26 2140 60.5   8.6 33   28 31.0   7.6 4.6   0.8 S | 169 7.1   1.1 S | 172 0.00 25.1   0.1 74.8   0.3 0.00 37.7   14.0 71.3   5.0 23.4   9.4
North Topaz Lake 9/5/26 2140 63.7   4.2 32   9 33.7   2.6 3.8   5.6 NW | 311 6.1   7.1 NW | 312 0.00 7.8   0.1 74.4   0.9 0.00 50.2   8.4 75.1   4.2 29.8   1.1
Wild Oat Mountain 9/5/26 2140 61.9   6.2 33   16 32.2   4.2 2.7   2.8 S | 173 6.7   6.1 SSE | 167 0.00 5.8   0.0 74.4   1.0 0.00 49.2   6.0 73.1   4.8 36.9   5.6
Smith Valley 9/5/26 2140 69.9   2.5 24   3 31.8   1.0 10.5   2.4 SW | 232 17.8   6.3 SW | 219 0.00 2.9   0.0 79.4   0.8 0.00 44.9   17.7 78.9   2.5 25.1   16.1
Pine Grove Mountain 9/5/26 2140 52.9   2.3 37   14 27.0   5.7 9.0   3.9 E | 90 14.0   5.0 E | 96 0.00 6.5   0.2 67.6   0.2 0.00 40.9   4.7 66.4   3.6 22.8   3.7
Paradise Hill 9/5/26 2140 65.7   4.8 36   10 38.4   1.7 7.9   2.5 NW | 324 12.4   4.1 NW | 322 0.00 9.8   0.0 76.7   2.7 0.00 48.0   5.1 74.8   8.2 28.4   7.8
Winnemucca 9/5/26 2140 59.2   1.6 41   13 35.7   5.3 5.9   2.8 ESE | 121 7.7   3.1 SE | 128 0.00 5.7   0.1 74.8   1.1 0.00 50.3   1.8 75.9   7.9 26.0   3.5
NE Elko 9/5/26 2140 66.1   4.9 31   13 34.8   4.6 4.9   2.3 E | 88 5.8   0.9 E | 87 0.00 5.7   0.0 75.9   0.1 0.00 40.4   4.5 82.5   3.5 22.2   6.2
North Elko 9/5/26 2140 65.4   6.6 31   18 34.2   5.7 3.2   10.5 SSW | 203 5.8   15.2 SSE | 160 0.00 24.6   0.0 73.4   0.1 0.00 48.9   4.8 80.3   3.5 22.5   6.6
South Elko 9/5/26 2140 64.8   6.9 33   14 35.3   2.9 1.7   2.3 WNW | 297 3.4   4.2 WNW | 290 0.00 13.6   0.1 71.9   0.8 0.00 48.0   5.1 92.4   17.6 30.2   8.0
Lamoille 9/5/26 2140 60.8   3.2 40   11 36.0   3.2 6.0   1.0 SSE | 149 9.3   1.1 SE | 142 0.00 6.1   0.1 70.1   0.0 0.00 44.1   2.5 79.3   2.0 29.3   7.4
Reid Gardner Sub 9/5/26 2140 89.3   0.6 20   6 43.7   8.5 7.0   0.9 S | 177 10.7   2.9 S | 190 0.00 24.6   1.7 89.4   0.1 0.00 60.7   0.9 100.9   3.2 28.8   6.3
Corn Creek 9/5/26 2140 81.6   1.9 22   3 39.0   2.2 9.3   2.8 E | 99 14.3   3.8 ESE | 109 0.00 3.1   0.0 91.0   1.0 0.00 69.3   1.0 94.2   2.3 33.9   6.1
Lucky Strike 9/5/26 2040 74.0   1.4 20   1 30.3   0.6 8.0   4.4 S | 173 14.5   3.1 S | 185 0.00 3.1   0.1 85.5   0.1 0.00 61.7   1.2 82.4   3.8 36.1   2.7
Lower Angel Peak 9/5/26 2140 67.0   1.9 31   5 35.7   6.4 5.5   2.8 SSE | 157 12.4   5.3 SSE | 152 0.00 3.2   0.1 74.2   0.1 0.00 53.9   2.0 77.3   2.2 28.7   1.6
Angel Peak 9/5/26 2140 56.1   1.1 43   10 33.8   7.8 21.8   4.5 S | 184 34.3   6.3 S | 186 0.00 2.4   0.2 68.7   0.7 0.00 52.7   1.8 66.4   1.5 45.8   1.2
Upper Kyle Canyon 9/5/26 2140 60.3   0.8 40   8 35.7   6.6 2.2   5.2 NE | 45 7.5   12.5 NNE | 28 0.00 7.7   0.0 75.6   0.2 0.00 57.6   1.1 70.1   2.4 34.2   5.1
Mt Charleston 9/5/26 2140 60.7   0.1 39   8 35.6   6.0 3.1   2.0 NE | 53 8.9   3.1 NW | 318 0.00 13.1   0.0 67.3   0.1 0.00 57.4   1.2 69.1   1.6 28.6   0.1
Mid Kyle Canyon 9/5/26 2140 68.2   2.3 33   6 37.9   7.1 5.4   1.5 SSW | 192 13.8   4.0 SSE | 163 0.00 5.8   0.0 75.6   0.1 0.00 59.2   4.8 77.4   2.2 31.0   4.0
Blue Diamond 9/5/26 2140 84.7   1.6 23   5 42.5   7.4 6.5   0.8 W | 274 9.7   1.4 W | 271 0.00 1.2   0.0 89.3   0.4 0.00 68.2   2.5 89.4   0.3 31.6   3.7
Artesian Sub 9/5/26 2140 93.2   3.6 19   3 45.5   7.9 2.1   0.2 SSE | 160 5.0   0.1 SSE | 148 0.00 11.6   0.1 91.9   0.3 0.00 77.5   0.6 100.7   0.5 22.5   2.6
North Henderson 9/5/26 2140 92.6   1.9 20   3 45.5   6.2 5.3   0.3 SW | 215 8.3   1.4 SW | 218 0.00 10.6   0.1 95.3   0.1 0.00 77.6   1.5 100.8   1.0 24.5   8.9
Sandy Valley 9/5/26 2140 84.4   0.3 25   5 44.9   5.5 5.1   1.0 E | 96 6.3   2.2 E | 94 0.00 7.5   0.2 92.6   0.3 0.00 68.2   0.2 92.2   1.5 24.7   0.5
Searchlight 9/5/26 2140 77.9   1.6 37   16 49.6   16.5 1.5   2.2 S | 188 3.0   5.3 S | 182 0.00 5.7   0.1 88.3   0.2 0.00 65.6   0.8 91.1   2.7 30.6   0.5
Laughlin 9/5/26 2140 96.0   6.1 26   11 55.3   19.9 5.4   0.2 SW | 231 8.2   1.4 SW | 236 0.00 4.4   0.1 99.2   0.3 0.00 79.4   0.6 105.1   1.7 28.8   4.1
31Mission Hills 9/5/26 2140 89.1   4.6 18   4 40.2   10.3 6.2   3.4 S | 188 8.6   2.2 SSW | 212 0.00 6.5   0.1 93.1   2.0 0.00 74.1   0.2 97.7   3.5 30.3   8.2
32 Enterprise Sierra Cliffs 9/5/26 2140 84.3   1.5 20   4 38.8   7.4 6.8   2.1 SW | 220 11.6   5.7 SW | 223 0.00 1.4   0.0 90.1   0.3 0.00 68.2   1.4 92.4   1.3 33.0   9.0
29 Calico Basin 9/5/26 2140 81.5   0.6 22   5 38.5   7.2 9.7   0.4 SSW | 204 13.8   0.4 SSW | 202 0.00 2.4   0.0 87.1   0.5 0.00 68.9   0.6 88.9   1.3 33.9   7.2
28 Indian Springs 9/5/26 2140 81.6   0.2 17   0 32.7   0.4 3.3   6.4 SW | 235 7.8   7.1 W | 275 0.00 4.4   0.1 87.7   0.5 0.00 63.4   1.5 93.1   0.2 39.1   9.2
30 Jean 9/5/26 2140 84.7   5.7 19   3 38.5   8.4 7.8   1.2 SSW | 213 12.3   3.9 SSW | 198 0.00 5.0   0.0 89.3   0.3 0.00 65.9   1.4 92.1   0.3 35.3   6.2
VC Highlands NW 9/5/26 2140 53.3   2.2 56   7 37.9   1.1 3.4   1.3 WSW | 242 9.4   1.0 SW | 222 0.00 1.6   0.0 67.4   2.0 0.00 44.4   6.4 67.2   5.6 20.4   6.7
Glenbrook-Spooner Summit 9/5/26 2140 46.8   0.2 76   5 39.8   1.9 2.2   2.7 WNW | 284 5.1   5.7 WSW | 256 0.00 7.9   0.1 68.2   0.6 0.00 37.2   9.3 59.8   4.2 22.6   1.2
Hobo Hot Springs 9/5/26 2140 63.4   8.2 36   18 36.2   3.0 2.9   0.8 WSW | 256 6.6   3.1 WSW | 241 0.00 1.1   0.0 71.5   1.0 0.00 41.5   12.8 75.6   5.6 24.3   2.9
Jack Valley Ranch 2 9/5/26 2140 60.0   2.8 42   7 36.8   1.4 2.1   4.8 NW | 316 5.8   14.4 W | 280 0.00 2.2   0.1 74.0   0.7 0.00 48.4   8.7 71.6   4.6 30.7   4.4
Genoa North 2 9/5/26 2140 61.4   3.5 39   10 36.5   2.7 5.6   0.8 W | 266 10.8   2.7 WSW | 250 0.00 0.8   0.0 76.0   2.0 0.00 44.7   13.0 74.2   5.7 26.0   2.2
Mottsville 2 9/5/26 2140 62.3   4.9 36   7 35.3   0.2 3.4   0.4 NW | 313 6.8   3.8 NW | 316 0.00 1.4   0.0 71.9   0.6 0.00 43.6   13.0 74.5   6.2 23.5   5.0
Kingsbury Village 3 9/5/26 2140 44.5   3.2 73   9 36.5   0.1 2.2   1.2 N | 3 4.1   1.1 NNE | 21 0.00 3.3   0.1 61.5   1.9 0.00 38.5   2.4 59.7   6.8 17.5   2.0
Kingsbury-Benjamin Dr 2 9/5/26 2140 46.9   3.6 70   10 37.5   0.2 2.2   1.0 SW | 230 5.6   2.9 SW | 228 0.00 2.9   0.0 67.5   1.9 0.00 41.0   2.1 61.2   5.6 15.6   0.9
Smith Valley-Wellington 9/5/26 2140 66.0   2.8 32   4 35.2   0.6 8.3   4.3 SW | 228 13.9   6.5 WSW | 241 0.00 3.5   0.1 80.4   0.6 0.00 43.6   17.1 78.6   3.4 28.1   8.8
Sheridan South 2 9/5/26 2140 61.4   5.6 40   8 37.0   0.2 8.7   5.3 ESE | 109 14.8   9.1 ESE | 110 0.00 0.5   0.0 74.0   2.6 0.00 47.3   7.0 72.6   6.8 32.5   4.5
Silver Springs 9/5/26 2140 66.8   3.6 35   6 38.4   1.0 12.5   0.9 NW | 319 17.6   2.4 NNW | 328 0.00 5.0   0.1 79.8   1.8 0.00 47.8   15.0 77.5   2.6 26.0   16.5
Fernley 9/5/26 2140 64.8   3.4 37   6 37.6   0.9 6.0   3.2 NW | 317 13.0   1.4 NNW | 339 0.00 3.2   0.0 78.3   0.2 0.00 47.8   11.5 75.6   1.1 28.4   8.2
Spanish Springs 9/5/26 2140 60.9   2.4 46   3 40.0   0.6 2.1   0.1 E | 89 3.8   0.9 E | 100 0.00 10.2   0.0 78.0   1.1 0.00 42.3   15.2 74.9   4.7 25.3   0.9
Suttcliffe South 2 9/5/26 2140 61.2   2.2 45   6 39.4   1.1 4.6   1.5 SSE | 168 7.6   2.7 S | 174 0.00 4.2   0.0 75.6   1.1 0.00 39.4   14.0 70.3   2.0 17.4   17.6
Lemmon Valley North 9/5/26 2140 57.2   1.4 49   2 38.3   0.2 4.0   4.6 S | 173 9.6   5.8 SSW | 207 0.00 2.0   0.0 69.9   0.2 0.00 34.8   17.4 69.6   4.1 24.8   4.8
Lemmon Valley NW 3 9/5/26 2140 57.9   1.4 49   3 38.7   0.2 7.4   0.3 W | 270 13.9   3.4 WSW | 254 0.00 1.3   0.0 78.2   1.2 0.00 39.6   14.1 70.2   4.2 23.0   8.3
VC Highlands North 9/5/26 2140 55.0   1.9 52   7 37.9   1.3 3.2   4.7 SSW | 198 7.0   8.9 SW | 228 0.00 4.7   0.1 71.7   1.4 0.00 38.0   14.9 68.0   5.4 22.1   5.3
Upper Voltaire Cyn 9/5/26 2140 58.4   4.0 44   13 36.3   2.9 7.0   0.8 WSW | 247 16.6   1.7 WSW | 241 0.00 1.2   0.1 70.1   2.8 0.00 48.9   5.2 67.9   7.2 28.4   7.4
Yerington NW 9/5/26 2140 65.8   6.5 36   11 37.9   0.8 8.7   0.1 N | 10 14.5   2.9 NNE | 18 0.00 7.3   0.0 77.0   0.9 0.00 45.2   12.3 76.2   1.0 22.1   10.8
Spanish Springs SW 9/5/26 2140 59.4   0.6 47   1 39.2   1.2 4.8   4.5 SW | 228 12.5   2.9 WSW | 251 0.00 1.5   0.0 79.0   0.7 0.00 44.6   12.7 73.1   4.1 23.2   3.7
Cosgrave 2 8/27/26 0750 62.9   4.1 34   3 33.8   1.4 2.6   0.5 WSW | 246 4.1   1.0 W | 267 0.00 3.8   0.1 77.4   2.9 0.00 62.7   3.3 77.4   3.5 11.2   3.9
Winnemucca-Grass Valley 2 9/5/26 2140 62.5   5.4 38   18 36.7   4.9 7.5   1.4 NNW | 342 11.2   4.1 NNW | 338 0.00 7.8   0.0 71.6   3.1 0.00 40.3   8.2 75.8   6.5 22.8   3.7
Winnemucca-Dutch Flat Rd 9/5/26 2140 65.6   7.3 34   20 36.7   5.1 3.0   1.0 E | 86 5.8   0.1 NE | 43 0.00 6.2   0.1 74.4   0.4 0.00 49.7   1.1 74.7   6.8 26.6   2.9
Paradise Valley 2 9/5/26 2140 63.4   1.5 35   3 35.3   0.5 3.3   2.8 WNW | 284 5.3   6.2 WNW | 292 0.00 12.7   0.0 75.8   0.7 0.00 42.9   5.5 73.5   3.0 20.9   6.6
Golconda 2 9/5/26 2140 62.3   3.4 38   15 36.2   5.5 8.3   1.9 WNW | 288 11.0   0.7 WNW | 296 0.00 2.0   0.1 79.7   5.2 0.00 50.1   0.7 76.0   6.3 27.0   2.6
Battle Mountain - South 9/5/26 2140 64.4   6.2 35   18 36.3   5.0 11.7   7.4 NNW | 342 18.4   12.0 NNW | 347 0.00 9.2   0.0 76.5   0.1 0.00 44.6   6.3 79.5   2.2 22.7   7.8
Geiger Summit 9/5/26 2140 50.9   2.2 100   0 50.9   2.2 4.4   3.0 SW | 222 11.3   5.8 SW | 223 0.00 6.3   0.0 67.3   0.7 0.00 42.0   6.5 64.1   4.5 22.4   8.1
Combs Canyon 3 9/5/26 2140 62.6   2.9 39   6 37.1   0.8 8.7   0.9 WSW | 249 19.5   2.4 WSW | 251 0.00 1.0   0.0 75.7   0.4 0.00 47.5   11.1 73.1   4.7 29.3   2.4
Clear Creek 9/5/26 2140 58.7   3.9 43   12 36.5   2.6 8.4   2.2 WSW | 255 16.4   2.0 W | 280 0.00 3.4   0.0 69.3   2.0 0.00 46.9   7.8 67.2   5.7 31.6   1.9
Eastlake 2 9/5/26 2140 60.1   1.4 50   3 41.5   3.0 15.0   9.9 SW | 234 23.2   11.4 SW | 215 0.00 3.4   0.0 72.6   0.1 0.00 43.6   14.5 71.7   4.1 30.1   0.9
Lovelock-Colado 2 9/5/26 2140 65.1   4.6 34   14 36.3   4.8 8.5   1.8 NNE | 30 11.8   2.5 NNE | 30 0.00 - 77.7   1.3 0.00 45.0   0.6 77.0   2.7 19.6   1.2
Spanish Springs NW 9/5/26 2140 61.0   1.9 45   3 39.4   0.1 7.2   0.9 WNW | 292 13.8   1.7 NW | 314 0.00 12.3   0.1 70.9   1.9 0.00 45.8   12.6 74.7   4.5 24.1   1.6
Battle Mountain NW 9/5/26 2140 63.4   3.2 36   14 36.0   5.6 6.0   0.6 WSW | 254 8.6   1.0 WSW | 249 0.00 8.8   0.1 77.1   1.7 0.00 47.1   7.4 80.5   7.7 22.8   3.2
Austin 2 9/5/26 2040 60.0   3.2 33   13 30.6   5.6 4.0   1.0 SSW | 208 6.2   0.4 S | 187 0.00 2.5   0.1 71.2   0.6 0.00 37.5   0.1 74.3   0.1 28.9   4.2
Elko-Osino 9/5/26 2140 68.4   6.2 27   14 33.4   5.3 4.6   2.0 NNE | 32 7.1   5.0 ENE | 66 0.00 1.6   0.1 80.2   0.2 0.00 39.2   5.0 81.8   2.5 27.4   4.2
Elko-Bill Fishpond 2 9/5/26 2140 63.6   7.0 32   18 33.0   4.9 4.5   3.0 SSE | 166 8.9   5.1 S | 186 0.00 3.6   0.0 70.9   0.5 0.00 41.3   7.2 78.9   0.6 23.6   5.7
Spring Creek SE 2 9/5/26 2140 62.5   1.6 32   10 32.7   5.2 3.5   4.5 SE | 124 4.6   7.1 SE | 129 0.00 0.2   0.0 71.8   0.0 0.00 41.8   2.5 80.8   2.5 29.9   1.5
Spring Creek NW 9/5/26 2140 62.7   2.1 31   9 32.0   4.5 2.2   0.9 ENE | 67 6.3   3.0 ENE | 58 0.00 2.2   0.1 74.4   0.6 0.00 47.8   1.4 80.0   1.9 25.3   1.9
Elko-Moleen 9/5/26 2140 64.0   1.2 30   11 32.1   6.5 4.4   1.0 WNW | 290 5.7   0.9 WNW | 299 0.00 6.3   0.1 78.8   0.0 0.00 41.2   2.5 81.5   2.1 20.2   1.6
Elko-West 9/5/26 2140 61.3   0.8 35   6 33.6   4.5 0.8   4.3 E | 94 3.4   4.3 E | 101 0.00 34.0   0.0 69.5   0.2 0.00 39.0   2.6 81.5   1.2 29.4   2.4
Elko-Adobe Creek 9/5/26 2140 59.8   8.1 34   24 31.3   6.2 5.5   7.6 NNE | 31 6.3   13.5 NNE | 27 0.00 18.6   0.1 70.2   0.2 0.00 43.8   4.8 74.4   2.0 26.8   0.9
Tuscarora SW 9/5/26 2140 61.8   9.5 32   32 31.4   9.0 6.4   0.9 ENE | 59 10.2   1.7 ENE | 66 0.00 6.9   0.1 72.7   1.2 0.00 35.8   6.8 75.5   5.5 32.3   7.1
Elko-Monument Peak 9/5/26 2140 58.2   5.9 34   24 30.0   7.9 2.6   4.9 NNW | 338 4.1   7.7 N | 5 0.00 4.2   0.1 72.4   0.3 0.00 31.4   6.6 76.4   2.1 23.0   3.5
Wild Horse 9/5/26 2140 58.3   9.1 46   23 37.6   1.9 6.8   6.0 N | 358 12.8   5.8 NNW | 345 0.00 4.6   0.0 68.5   1.2 0.00 33.9   15.1 73.4   5.6 28.3   2.4
Max     96.0 100 55.3 26.6 - 36.0 - 0.00 43.5 99.2 0.00 79.4 105.1 45.8
Avg     62.3 43 38.0 5.8 - 10.4 - 0.00 7.0 73.5 - - - -
Min     44.5 17 27.0 0.0 - 0.0 - 0.00 0.2 32.0 0.00 31.4 58.2 8.7